Time;durP1;ratioP1;P1;durP2;ratioP2;P2;SDS_P1;SDS_P2;PMS_P1;PMS_P2;Temp;Humidity;BMP_temperature;BMP_pressure;BME280_temperature;BME280_humidity;BME280_pressure;Samples;Min_cycle;Max_cycle;Signal;HPM_P1;HPM_P2
2023/12/31 00:00:25;;;;;;;1.73;1.50;;;17.50;70.90;;;;;;5079883;28;43408;-70
2023/12/31 00:02:53;;;;;;;1.33;1.33;;;17.50;70.70;;;;;;5078091;28;43462;-70
2023/12/31 00:05:21;;;;;;;1.80;1.70;;;17.60;70.40;;;;;;5079659;28;43769;-70
2023/12/31 00:07:49;;;;;;;4.43;1.50;;;17.70;70.00;;;;;;5073570;28;43698;-70
2023/12/31 00:10:18;;;;;;;1.30;1.30;;;17.70;69.70;;;;;;5092307;28;43464;-70
2023/12/31 00:12:47;;;;;;;1.60;1.50;;;17.70;69.80;;;;;;5081299;28;43414;-70
2023/12/31 00:15:15;;;;;;;1.33;1.33;;;17.70;70.00;;;;;;5084842;28;43442;-70
2023/12/31 00:17:43;;;;;;;1.40;1.30;;;17.70;69.90;;;;;;5086701;28;43607;-70
2023/12/31 00:20:12;;;;;;;1.50;1.50;;;17.70;69.90;;;;;;5073118;28;43452;-70
2023/12/31 00:22:40;;;;;;;1.60;1.60;;;17.60;70.00;;;;;;5084981;28;43753;-70
2023/12/31 00:25:09;;;;;;;1.40;1.40;;;17.60;70.10;;;;;;5077765;28;43850;-70
2023/12/31 00:27:38;;;;;;;1.33;1.33;;;17.60;70.30;;;;;;5079261;28;43767;-69
2023/12/31 00:30:07;;;;;;;1.73;1.40;;;17.50;70.50;;;;;;5081503;28;45103;-69
2023/12/31 00:32:36;;;;;;;1.50;1.40;;;17.50;70.30;;;;;;5079122;28;43469;-69
2023/12/31 00:35:04;;;;;;;1.20;1.20;;;17.50;70.40;;;;;;5082818;28;43586;-69
2023/12/31 00:37:32;;;;;;;1.30;1.30;;;17.50;70.40;;;;;;5091025;28;45388;-69
2023/12/31 00:40:01;;;;;;;1.17;1.17;;;17.50;70.60;;;;;;5078721;28;45085;-70
2023/12/31 00:42:29;;;;;;;1.43;1.43;;;17.50;70.60;;;;;;5077878;28;43396;-69
2023/12/31 00:44:59;;;;;;;1.17;1.17;;;17.50;70.80;;;;;;5077186;28;43476;-70
2023/12/31 00:47:27;;;;;;;1.20;1.20;;;17.50;70.60;;;;;;5085367;28;45691;-69
2023/12/31 00:49:55;;;;;;;1.20;1.20;;;17.40;70.50;;;;;;5078285;28;44973;-69
2023/12/31 00:52:23;;;;;;;1.40;1.40;;;17.50;70.60;;;;;;5082542;28;43400;-69
2023/12/31 00:54:52;;;;;;;2.30;1.23;;;17.40;70.60;;;;;;5085722;28;43458;-69
2023/12/31 00:57:20;;;;;;;1.20;1.20;;;17.40;70.60;;;;;;5081461;28;43602;-69
2023/12/31 00:59:48;;;;;;;1.10;1.10;;;17.40;70.80;;;;;;5075159;28;44856;-69
2023/12/31 01:02:17;;;;;;;1.40;1.40;;;17.50;70.70;;;;;;5076489;28;43323;-69
2023/12/31 01:04:45;;;;;;;1.23;1.23;;;17.60;70.40;;;;;;5078003;28;43539;-68
2023/12/31 01:07:14;;;;;;;1.40;1.40;;;17.70;70.10;;;;;;5082617;28;45675;-68
2023/12/31 01:09:42;;;;;;;1.40;1.40;;;17.70;69.70;;;;;;5087290;28;43433;-68
2023/12/31 01:12:10;;;;;;;1.20;1.20;;;17.70;70.50;;;;;;5084114;28;43418;-69
2023/12/31 01:14:38;;;;;;;1.30;1.30;;;17.70;70.00;;;;;;5088129;28;43419;-70
2023/12/31 01:17:06;;;;;;;1.40;1.40;;;17.70;69.90;;;;;;5088461;28;46042;-70
2023/12/31 01:19:37;;;;;;;1.20;1.20;;;17.70;69.90;;;;;;5088091;28;43397;-70
2023/12/31 01:22:05;;;;;;;1.33;1.33;;;17.60;70.00;;;;;;5085711;28;43477;-70
2023/12/31 01:24:33;;;;;;;1.30;1.30;;;17.60;70.10;;;;;;5087332;28;43300;-70
2023/12/31 01:27:01;;;;;;;1.10;1.10;;;17.50;70.20;;;;;;5085884;28;44608;-69
2023/12/31 01:29:29;;;;;;;1.33;1.33;;;17.50;70.40;;;;;;5076446;28;44285;-69
2023/12/31 01:31:59;;;;;;;1.40;1.40;;;17.50;70.40;;;;;;5081057;28;43427;-70
2023/12/31 01:34:27;;;;;;;1.30;1.30;;;17.50;70.40;;;;;;5082956;28;43390;-69
2023/12/31 01:36:56;;;;;;;1.27;1.27;;;17.50;70.40;;;;;;5089542;28;46152;-70
2023/12/31 01:39:24;;;;;;;1.20;1.20;;;17.50;70.50;;;;;;5084098;28;45117;-70
2023/12/31 01:41:52;;;;;;;1.47;1.47;;;17.50;70.60;;;;;;5079384;28;43417;-70
2023/12/31 01:44:20;;;;;;;1.33;1.33;;;17.40;70.50;;;;;;5084314;28;43515;-70
2023/12/31 01:46:48;;;;;;;1.40;1.40;;;17.40;70.50;;;;;;5080178;28;45633;-70
2023/12/31 01:49:16;;;;;;;1.37;1.37;;;17.40;70.40;;;;;;5073007;28;45106;-70
2023/12/31 01:51:44;;;;;;;1.27;1.27;;;17.40;70.40;;;;;;5075001;28;43407;-70
2023/12/31 01:54:15;;;;;;;1.20;1.20;;;17.40;70.40;;;;;;5089826;28;43395;-70
2023/12/31 01:56:43;;;;;;;1.33;1.33;;;17.40;70.60;;;;;;5091459;28;45428;-69
2023/12/31 01:59:11;;;;;;;1.30;1.30;;;17.40;70.60;;;;;;5083417;28;44042;-70
2023/12/31 02:01:40;;;;;;;1.33;1.33;;;17.40;70.70;;;;;;5079277;28;43387;-70
2023/12/31 02:04:08;;;;;;;1.30;1.30;;;17.50;70.60;;;;;;5085877;28;43515;-70
2023/12/31 02:06:36;;;;;;;1.20;1.20;;;17.60;70.10;;;;;;5078674;28;45615;-70
2023/12/31 02:09:06;;;;;;;1.30;1.30;;;17.70;69.80;;;;;;5089285;28;44986;-70
2023/12/31 02:11:36;;;;;;;1.10;1.10;;;17.70;69.60;;;;;;5080926;28;43502;-70
2023/12/31 02:14:04;;;;;;;1.30;1.30;;;17.70;69.70;;;;;;5087470;28;43367;-69
2023/12/31 02:16:32;;;;;;;1.20;1.20;;;17.60;69.90;;;;;;5076468;28;45623;-70
2023/12/31 02:19:00;;;;;;;1.23;1.20;;;17.60;69.80;;;;;;5075862;28;45005;-70
2023/12/31 02:21:28;;;;;;;1.33;1.23;;;17.60;69.80;;;;;;5087051;28;43396;-70
2023/12/31 02:23:56;;;;;;;1.10;1.10;;;17.60;70.00;;;;;;5076704;28;43629;-69
2023/12/31 02:26:26;;;;;;;1.10;1.10;;;17.60;70.10;;;;;;5073885;28;45393;-70
2023/12/31 02:28:54;;;;;;;1.20;1.20;;;17.50;70.20;;;;;;5081966;28;44933;-70
2023/12/31 02:31:22;;;;;;;1.30;1.30;;;17.50;70.40;;;;;;5077449;28;43435;-70
2023/12/31 02:33:51;;;;;;;1.03;1.03;;;17.50;70.30;;;;;;5075800;28;43945;-70
2023/12/31 02:36:19;;;;;;;1.10;1.10;;;17.50;70.30;;;;;;5079186;28;45613;-70
2023/12/31 02:38:49;;;;;;;1.10;1.10;;;17.50;70.40;;;;;;5079145;28;43395;-70
2023/12/31 02:41:17;;;;;;;1.20;1.20;;;17.50;70.40;;;;;;5076649;28;43424;-70
2023/12/31 02:43:47;;;;;;;1.23;1.23;;;17.40;70.40;;;;;;5088452;28;43463;-70
2023/12/31 02:46:15;;;;;;;1.00;1.00;;;17.40;70.60;;;;;;5077254;28;45527;-69
2023/12/31 02:48:44;;;;;;;1.20;1.20;;;17.50;70.60;;;;;;5080415;28;43371;-69
2023/12/31 02:51:12;;;;;;;1.30;1.30;;;17.50;70.20;;;;;;5077237;28;43452;-69
2023/12/31 02:53:40;;;;;;;1.10;1.10;;;17.60;70.00;;;;;;5086251;28;43499;-69
2023/12/31 02:56:08;;;;;;;1.10;1.10;;;17.60;70.00;;;;;;5092020;28;43608;-69
2023/12/31 02:58:36;;;;;;;1.10;1.10;;;17.60;70.00;;;;;;5085900;28;43363;-69
2023/12/31 03:01:06;;;;;;;1.20;1.20;;;17.50;70.20;;;;;;5081054;28;43414;-69
2023/12/31 03:03:34;;;;;;;1.10;1.10;;;17.50;70.10;;;;;;5086669;28;43466;-69
2023/12/31 03:06:02;;;;;;;1.13;1.13;;;17.50;70.10;;;;;;5077052;28;45869;-69
2023/12/31 03:08:30;;;;;;;1.10;1.10;;;17.50;70.20;;;;;;5084256;28;44513;-69
2023/12/31 03:10:58;;;;;;;1.20;1.20;;;17.50;70.30;;;;;;5077985;28;43354;-69
2023/12/31 03:13:26;;;;;;;1.20;1.20;;;17.50;70.30;;;;;;5077613;28;43348;-69
2023/12/31 03:15:54;;;;;;;1.33;1.33;;;17.40;70.40;;;;;;5087125;28;46019;-69
2023/12/31 03:18:23;;;;;;;1.00;1.00;;;17.50;70.60;;;;;;5089656;28;43440;-70
2023/12/31 03:20:52;;;;;;;1.00;1.00;;;17.50;70.30;;;;;;5085578;28;43788;-69
2023/12/31 03:23:20;;;;;;;1.03;1.03;;;17.60;70.00;;;;;;5078567;28;43423;-69
2023/12/31 03:25:48;;;;;;;1.00;1.00;;;17.60;70.00;;;;;;5091128;28;45746;-70
2023/12/31 03:28:16;;;;;;;1.10;1.10;;;17.50;70.00;;;;;;5076330;28;44773;-69
2023/12/31 03:30:44;;;;;;;1.17;1.17;;;17.50;70.10;;;;;;5083398;28;43466;-69
2023/12/31 03:33:12;;;;;;;1.20;1.20;;;17.50;70.30;;;;;;5079224;28;43408;-69
2023/12/31 03:35:41;;;;;;;1.07;1.07;;;17.50;70.10;;;;;;5085928;28;45424;-69
2023/12/31 03:38:09;;;;;;;1.00;1.00;;;17.50;70.20;;;;;;5081282;28;43655;-69
2023/12/31 03:40:38;;;;;;;1.30;1.30;;;17.50;70.30;;;;;;5082972;28;43445;-69
2023/12/31 03:43:07;;;;;;;1.13;1.13;;;17.40;70.20;;;;;;5082680;28;43357;-69
2023/12/31 03:45:35;;;;;;;1.20;1.20;;;17.40;70.40;;;;;;5078428;28;43839;-69
2023/12/31 03:48:03;;;;;;;1.10;1.10;;;17.40;70.50;;;;;;5082230;28;43410;-69
2023/12/31 03:50:31;;;;;;;1.10;1.10;;;17.40;70.40;;;;;;5084619;28;43367;-69
2023/12/31 03:53:00;;;;;;;1.20;1.20;;;17.40;71.10;;;;;;5091507;28;43530;-68
2023/12/31 03:55:29;;;;;;;1.10;1.10;;;17.40;70.40;;;;;;5073091;28;45943;-70
2023/12/31 03:57:57;;;;;;;1.00;1.00;;;17.40;70.50;;;;;;5077275;28;44606;-70
2023/12/31 04:00:25;;;;;;;1.13;1.13;;;17.40;70.60;;;;;;5077947;28;43481;-70
2023/12/31 04:02:53;;;;;;;1.10;1.10;;;17.30;70.60;;;;;;5083488;28;43503;-70
2023/12/31 04:05:21;;;;;;;1.10;1.10;;;17.40;70.60;;;;;;5074116;28;44636;-70
2023/12/31 04:07:49;;;;;;;1.10;1.10;;;17.50;70.40;;;;;;5077188;28;45017;-70
2023/12/31 04:10:20;;;;;;;1.00;1.00;;;17.60;70.10;;;;;;5077223;28;43478;-70
2023/12/31 04:12:48;;;;;;;1.30;1.30;;;17.60;69.60;;;;;;5082165;28;43497;-70
2023/12/31 04:15:16;;;;;;;1.10;1.10;;;17.60;69.60;;;;;;5088950;28;46082;-70
2023/12/31 04:17:44;;;;;;;1.10;1.10;;;17.60;69.80;;;;;;5084749;28;43314;-70
2023/12/31 04:20:13;;;;;;;1.10;1.10;;;17.60;69.90;;;;;;5084182;28;44017;-70
2023/12/31 04:22:41;;;;;;;1.10;1.10;;;17.60;69.80;;;;;;5081317;28;43496;-70
2023/12/31 04:25:09;;;;;;;1.03;1.03;;;17.60;70.00;;;;;;5075844;28;45972;-70
2023/12/31 04:27:40;;;;;;;1.10;1.10;;;17.60;70.10;;;;;;5082123;28;45020;-70
2023/12/31 04:30:11;;;;;;;1.10;1.10;;;17.50;70.10;;;;;;5089511;28;43447;-70
2023/12/31 04:32:40;;;;;;;0.90;0.90;;;17.50;70.30;;;;;;5075576;28;43547;-70
2023/12/31 04:35:08;;;;;;;1.20;1.20;;;17.50;70.30;;;;;;5077104;28;45335;-70
2023/12/31 04:37:36;;;;;;;1.00;1.00;;;17.50;70.30;;;;;;5081740;28;44439;-70
2023/12/31 04:40:06;;;;;;;1.30;1.30;;;17.50;70.30;;;;;;5079597;28;43466;-70
2023/12/31 04:42:36;;;;;;;0.93;0.93;;;17.50;70.40;;;;;;5073873;28;43462;-70
2023/12/31 04:45:09;;;;;;;0.90;0.90;;;17.50;70.50;;;;;;5082229;28;45712;-70
2023/12/31 04:47:37;;;;;;;1.00;1.00;;;17.40;70.40;;;;;;5076682;28;44760;-70
2023/12/31 04:50:06;;;;;;;1.27;1.27;;;17.40;70.40;;;;;;5088853;28;43375;-70
2023/12/31 04:52:34;;;;;;;1.10;1.10;;;17.50;70.40;;;;;;5076702;28;43572;-70
2023/12/31 04:55:02;;;;;;;1.10;1.10;;;17.60;70.10;;;;;;5078769;28;45960;-70
2023/12/31 04:57:31;;;;;;;1.17;1.17;;;17.60;69.90;;;;;;5080329;28;44613;-70
2023/12/31 04:59:59;;;;;;;1.10;1.10;;;17.60;70.00;;;;;;5080338;28;43469;-70
2023/12/31 05:02:28;;;;;;;0.97;0.97;;;17.60;70.00;;;;;;5072177;28;43463;-70
2023/12/31 05:04:57;;;;;;;1.17;1.17;;;17.50;70.10;;;;;;5085126;28;43781;-70
2023/12/31 05:07:25;;;;;;;1.10;1.10;;;17.50;70.00;;;;;;5063179;28;43340;-72
2023/12/31 05:09:53;;;;;;;1.00;1.00;;;17.50;70.70;;;;;;5059433;28;43510;-72
2023/12/31 05:12:22;;;;;;;0.83;0.83;;;17.50;70.20;;;;;;5065701;28;43763;-72
2023/12/31 05:14:50;;;;;;;1.10;1.10;;;17.50;70.20;;;;;;5061161;28;43897;-72
2023/12/31 05:17:18;;;;;;;1.00;1.00;;;17.50;70.30;;;;;;5061239;28;43905;-72
2023/12/31 05:19:47;;;;;;;1.10;1.10;;;17.50;70.40;;;;;;5057815;28;43396;-72
2023/12/31 05:22:15;;;;;;;1.00;1.00;;;17.50;70.30;;;;;;5062673;28;43438;-72
2023/12/31 05:24:44;;;;;;;1.10;1.10;;;17.60;70.10;;;;;;5069871;28;45692;-72
2023/12/31 05:27:12;;;;;;;1.00;1.00;;;17.60;69.80;;;;;;5060624;28;43369;-72
2023/12/31 05:29:40;;;;;;;0.90;0.90;;;17.60;69.80;;;;;;5056968;28;43534;-72
2023/12/31 05:32:08;;;;;;;1.00;1.00;;;17.60;70.00;;;;;;5048805;28;43325;-72
2023/12/31 05:34:36;;;;;;;1.00;1.00;;;17.50;70.00;;;;;;5055950;28;43626;-71
2023/12/31 05:37:06;;;;;;;1.10;1.10;;;17.50;70.00;;;;;;5063694;28;43393;-72
2023/12/31 05:39:34;;;;;;;1.07;1.07;;;17.60;70.00;;;;;;5054532;28;43976;-71
2023/12/31 05:42:02;;;;;;;1.20;1.20;;;17.50;70.10;;;;;;5060316;28;43410;-72
2023/12/31 05:44:33;;;;;;;1.00;1.00;;;17.50;70.20;;;;;;5061600;28;43642;-72
2023/12/31 05:47:01;;;;;;;0.97;0.97;;;17.50;70.30;;;;;;5060031;28;43525;-72
2023/12/31 05:49:29;;;;;;;1.20;1.20;;;17.50;70.30;;;;;;5052604;28;43437;-72
2023/12/31 05:51:57;;;;;;;1.03;1.03;;;17.50;70.30;;;;;;5054128;28;43387;-72
2023/12/31 05:54:26;;;;;;;1.10;1.10;;;17.50;70.10;;;;;;5068095;28;43863;-72
2023/12/31 05:56:54;;;;;;;1.10;1.10;;;17.60;69.80;;;;;;5068381;28;43472;-72
2023/12/31 05:59:24;;;;;;;1.20;1.20;;;17.60;69.60;;;;;;5058339;28;43490;-72
2023/12/31 06:01:52;;;;;;;0.93;0.93;;;17.60;69.80;;;;;;5061128;28;43909;-72
2023/12/31 06:04:20;;;;;;;1.10;1.10;;;17.60;69.90;;;;;;5056553;28;43948;-72
2023/12/31 06:06:48;;;;;;;0.97;0.97;;;17.60;70.00;;;;;;5067184;28;43675;-72
2023/12/31 06:09:16;;;;;;;1.00;1.00;;;17.60;69.90;;;;;;5061110;28;43494;-72
2023/12/31 06:11:46;;;;;;;1.10;1.10;;;17.60;70.00;;;;;;5062468;28;43435;-72
2023/12/31 06:14:14;;;;;;;0.90;0.90;;;17.50;70.00;;;;;;5062397;28;43602;-72
2023/12/31 06:16:42;;;;;;;1.00;1.00;;;17.50;70.10;;;;;;5062092;28;43427;-72
2023/12/31 06:19:10;;;;;;;1.00;1.00;;;17.50;70.20;;;;;;5061864;28;43414;-72
2023/12/31 06:21:38;;;;;;;1.20;1.20;;;17.50;70.30;;;;;;5051376;28;43828;-72
2023/12/31 06:24:07;;;;;;;1.10;1.10;;;17.50;70.20;;;;;;5050384;28;43919;-72
2023/12/31 06:26:35;;;;;;;1.00;1.00;;;17.50;70.20;;;;;;5056613;28;43543;-72
2023/12/31 06:29:04;;;;;;;1.10;1.10;;;17.50;70.30;;;;;;5063304;28;43416;-72
2023/12/31 06:31:32;;;;;;;1.20;1.20;;;17.50;70.30;;;;;;5058953;28;43710;-72
2023/12/31 06:34:00;;;;;;;1.30;1.30;;;17.50;71.00;;;;;;5069974;27;43619;-72
2023/12/31 06:36:28;;;;;;;1.20;1.20;;;17.40;70.40;;;;;;5070658;28;43910;-72
2023/12/31 06:38:56;;;;;;;1.07;1.07;;;17.50;70.30;;;;;;5068029;27;43435;-71
2023/12/31 06:41:24;;;;;;;1.20;1.20;;;17.60;70.00;;;;;;5064712;28;43454;-72
2023/12/31 06:43:52;;;;;;;1.10;1.10;;;17.60;69.60;;;;;;5059679;28;43645;-72
2023/12/31 06:46:22;;;;;;;1.10;1.10;;;17.70;69.60;;;;;;5072873;27;44391;-72
2023/12/31 06:48:50;;;;;;;1.10;1.10;;;17.60;69.60;;;;;;5071258;28;43518;-72
2023/12/31 06:51:18;;;;;;;1.33;1.33;;;17.60;69.80;;;;;;5071687;28;43504;-72
2023/12/31 06:53:46;;;;;;;1.20;1.20;;;17.60;69.70;;;;;;5078347;28;43605;-72
2023/12/31 06:56:14;;;;;;;1.20;1.20;;;17.60;69.80;;;;;;5072282;27;43411;-72
2023/12/31 06:58:42;;;;;;;1.23;1.20;;;17.60;70.60;;;;;;5057932;28;43886;-72
2023/12/31 07:01:10;;;;;;;1.07;1.07;;;17.50;69.90;;;;;;5064715;28;43368;-72
2023/12/31 07:03:40;;;;;;;1.20;1.20;;;17.50;70.00;;;;;;5059241;28;43966;-72
2023/12/31 07:06:08;;;;;;;1.40;1.40;;;17.50;70.10;;;;;;5050527;28;45198;-72
2023/12/31 07:08:36;;;;;;;1.10;1.10;;;17.50;70.10;;;;;;5059937;28;43530;-72
2023/12/31 07:11:05;;;;;;;1.27;1.27;;;17.50;70.10;;;;;;5071041;28;43605;-72
2023/12/31 07:13:33;;;;;;;1.30;1.30;;;17.50;70.10;;;;;;5072731;28;44052;-72
2023/12/31 07:16:01;;;;;;;1.20;1.20;;;17.50;70.20;;;;;;5055226;28;43371;-72
2023/12/31 07:18:29;;;;;;;1.30;1.30;;;17.50;70.30;;;;;;5061188;28;43391;-72
2023/12/31 07:20:58;;;;;;;1.30;1.30;;;17.40;70.30;;;;;;5054893;28;43972;-72
2023/12/31 07:23:26;;;;;;;1.27;1.27;;;17.40;70.30;;;;;;5061266;28;45667;-72
2023/12/31 07:25:54;;;;;;;1.30;1.30;;;17.50;70.10;;;;;;5064899;28;43422;-69
2023/12/31 07:28:22;;;;;;;1.20;1.20;;;17.60;69.80;;;;;;5087486;28;43356;-69
2023/12/31 07:30:51;;;;;;;1.30;1.30;;;17.60;69.60;;;;;;5077812;28;43467;-69
2023/12/31 07:33:19;;;;;;;1.30;1.30;;;17.60;70.40;;;;;;5082599;28;43934;-68
2023/12/31 07:35:47;;;;;;;1.20;1.20;;;17.60;69.80;;;;;;5091447;28;43406;-69
2023/12/31 07:38:16;;;;;;;1.20;1.20;;;17.60;70.00;;;;;;5090240;28;43701;-69
2023/12/31 07:40:44;;;;;;;1.20;1.20;;;17.50;69.80;;;;;;5087172;28;43416;-69
2023/12/31 07:43:12;;;;;;;1.27;1.27;;;17.60;69.90;;;;;;5084840;28;43567;-70
2023/12/31 07:45:40;;;;;;;1.30;1.30;;;17.50;70.00;;;;;;5087182;28;44566;-69
2023/12/31 07:48:10;;;;;;;1.20;1.20;;;17.50;70.00;;;;;;5081407;28;43395;-69
2023/12/31 07:50:38;;;;;;;1.30;1.30;;;17.50;70.90;;;;;;5078130;28;43388;-69
2023/12/31 07:53:06;;;;;;;1.50;1.50;;;17.50;70.20;;;;;;5082827;28;44025;-69
2023/12/31 07:55:36;;;;;;;1.40;1.40;;;17.50;70.10;;;;;;5082960;28;43469;-69
2023/12/31 07:58:04;;;;;;;1.10;1.10;;;17.50;70.20;;;;;;5083867;28;43406;-70
2023/12/31 08:00:33;;;;;;;1.40;1.40;;;17.50;70.20;;;;;;5079706;28;43360;-69
2023/12/31 08:03:01;;;;;;;1.20;1.20;;;17.40;70.20;;;;;;5080911;28;43673;-69
2023/12/31 08:05:32;;;;;;;1.50;1.50;;;17.40;70.20;;;;;;5085509;28;44000;-69
2023/12/31 08:08:00;;;;;;;1.40;1.40;;;17.40;70.20;;;;;;5094767;28;43457;-70
2023/12/31 08:10:28;;;;;;;1.30;1.30;;;17.50;70.20;;;;;;5090334;28;43399;-69
2023/12/31 08:12:57;;;;;;;1.23;1.23;;;17.60;69.90;;;;;;5081244;28;43635;-70
2023/12/31 08:15:25;;;;;;;1.33;1.33;;;17.70;69.60;;;;;;5082827;28;43399;-69
2023/12/31 08:17:53;;;;;;;1.30;1.30;;;17.70;69.50;;;;;;5082680;28;43530;-69
2023/12/31 08:20:22;;;;;;;1.40;1.40;;;17.60;69.50;;;;;;5086411;28;43436;-69
2023/12/31 08:22:52;;;;;;;1.30;1.30;;;17.60;70.40;;;;;;5080501;28;43585;-70
2023/12/31 08:25:20;;;;;;;1.30;1.30;;;17.60;69.60;;;;;;5080924;28;43383;-70
2023/12/31 08:27:48;;;;;;;1.40;1.40;;;17.60;69.60;;;;;;5082395;28;43524;-69
2023/12/31 08:30:18;;;;;;;1.37;1.37;;;17.60;69.80;;;;;;5080829;28;43483;-70
2023/12/31 08:32:46;;;;;;;1.40;1.40;;;17.50;69.90;;;;;;5087720;28;43670;-69
2023/12/31 08:35:14;;;;;;;1.37;1.37;;;17.50;70.00;;;;;;5083140;28;43518;-71
2023/12/31 08:37:43;;;;;;;1.50;1.50;;;17.50;70.10;;;;;;5055436;28;43400;-71
2023/12/31 08:40:11;;;;;;;1.50;1.50;;;17.50;70.10;;;;;;5049646;28;43541;-71
2023/12/31 08:42:40;;;;;;;1.50;1.50;;;17.50;70.20;;;;;;5062007;28;43682;-72
2023/12/31 08:45:10;;;;;;;1.40;1.40;;;17.50;70.20;;;;;;5057780;28;43484;-72
2023/12/31 08:47:40;;;;;;;1.40;1.40;;;17.50;70.30;;;;;;5061477;28;44027;-72
2023/12/31 08:50:09;;;;;;;1.43;1.43;;;17.40;70.30;;;;;;5055314;28;43448;-72
2023/12/31 08:52:40;;;;;;;1.50;1.50;;;17.40;70.30;;;;;;5056422;28;43845;-72
2023/12/31 08:55:08;;;;;;;1.30;1.30;;;17.40;70.30;;;;;;5062738;28;43992;-72
2023/12/31 08:57:36;;;;;;;1.20;1.20;;;17.50;70.10;;;;;;5061494;28;43370;-72
2023/12/31 09:00:06;;;;;;;1.60;1.60;;;17.60;69.80;;;;;;5062680;28;43459;-72
2023/12/31 09:02:34;;;;;;;1.50;1.50;;;17.60;69.50;;;;;;5065944;28;43614;-72
2023/12/31 09:05:04;;;;;;;1.50;1.50;;;17.60;69.60;;;;;;5059939;28;43360;-72
2023/12/31 09:07:34;;;;;;;1.50;1.50;;;17.60;69.70;;;;;;5050816;28;43470;-72
2023/12/31 09:10:03;;;;;;;1.50;1.50;;;17.60;69.80;;;;;;5062848;28;43930;-72
2023/12/31 09:12:31;;;;;;;1.43;1.43;;;17.60;69.70;;;;;;5063949;28;45338;-72
2023/12/31 09:14:59;;;;;;;1.43;1.43;;;17.60;69.90;;;;;;5058871;28;43423;-72
2023/12/31 09:17:27;;;;;;;1.30;1.30;;;17.50;69.90;;;;;;5052986;28;43531;-72
2023/12/31 09:19:56;;;;;;;1.40;1.40;;;17.50;70.00;;;;;;5057981;28;43578;-72
2023/12/31 09:22:26;;;;;;;1.43;1.43;;;17.50;70.10;;;;;;5053044;28;43685;-72
2023/12/31 09:24:54;;;;;;;1.70;1.57;;;17.50;70.20;;;;;;5054070;28;43458;-72
2023/12/31 09:27:22;;;;;;;2.63;1.30;;;17.50;70.10;;;;;;5053285;28;43981;-72
2023/12/31 09:29:50;;;;;;;1.30;1.30;;;17.50;70.20;;;;;;5066429;28;43384;-72
2023/12/31 09:32:18;;;;;;;1.30;1.30;;;17.40;70.10;;;;;;5058296;28;43926;-72
2023/12/31 09:34:46;;;;;;;1.70;1.60;;;17.40;70.10;;;;;;5062737;28;43461;-72
2023/12/31 09:37:18;;;;;;;1.67;1.57;;;17.40;70.10;;;;;;5058781;28;43474;-71
2023/12/31 09:39:48;;;;;;;1.40;1.40;;;17.40;70.00;;;;;;5064341;28;43523;-72
2023/12/31 09:42:19;;;;;;;1.50;1.37;;;17.50;69.90;;;;;;5061900;28;43754;-72
2023/12/31 09:44:47;;;;;;;1.50;1.50;;;17.60;69.50;;;;;;5063423;28;43975;-72
2023/12/31 09:47:15;;;;;;;1.90;1.80;;;17.70;69.20;;;;;;5053742;28;43411;-72
2023/12/31 09:49:43;;;;;;;1.60;1.60;;;17.70;69.20;;;;;;5061140;28;43488;-72
2023/12/31 09:52:11;;;;;;;1.60;1.60;;;17.70;69.40;;;;;;5062398;28;43783;-72
2023/12/31 09:54:40;;;;;;;1.60;1.60;;;17.60;69.30;;;;;;5066799;28;43414;-72
2023/12/31 09:57:09;;;;;;;1.63;1.53;;;17.60;69.20;;;;;;5058409;28;44135;-72
2023/12/31 09:59:46;;;;;;;1.50;1.50;;;17.60;69.40;;;;;;5059067;28;43852;-72
2023/12/31 10:02:19;;;;;;;1.40;1.40;;;17.60;69.50;;;;;;5063447;28;43934;-72
2023/12/31 10:04:47;;;;;;;1.60;1.60;;;17.60;69.70;;;;;;5062530;28;43461;-72
2023/12/31 10:07:16;;;;;;;1.60;1.60;;;17.50;69.70;;;;;;5056992;28;43395;-72
2023/12/31 10:09:44;;;;;;;1.37;1.37;;;17.50;69.70;;;;;;5061141;28;43761;-72
2023/12/31 10:12:13;;;;;;;1.50;1.50;;;17.50;69.60;;;;;;5062627;28;45948;-72
2023/12/31 10:14:41;;;;;;;1.20;1.20;;;17.50;69.70;;;;;;5065125;28;43519;-72
2023/12/31 10:17:10;;;;;;;1.50;1.50;;;17.50;69.70;;;;;;5057432;28;43380;-72
2023/12/31 10:19:38;;;;;;;1.47;1.47;;;17.50;69.80;;;;;;5056465;28;43586;-72
2023/12/31 10:22:06;;;;;;;1.40;1.40;;;17.50;69.80;;;;;;5054570;28;46153;-72
2023/12/31 10:24:34;;;;;;;1.50;1.50;;;17.40;69.70;;;;;;5058864;28;43489;-72
2023/12/31 10:27:04;;;;;;;1.60;1.60;;;17.50;69.60;;;;;;5062037;28;43522;-72
2023/12/31 10:29:35;;;;;;;1.50;1.50;;;17.60;69.40;;;;;;5060120;28;43570;-72
2023/12/31 10:32:03;;;;;;;1.60;1.60;;;17.60;69.10;;;;;;5058733;28;43770;-72
2023/12/31 10:34:31;;;;;;;1.60;1.60;;;17.70;69.10;;;;;;5060520;28;46094;-72
2023/12/31 10:37:03;;;;;;;1.50;1.50;;;17.60;69.30;;;;;;5060495;28;43394;-72
2023/12/31 10:39:32;;;;;;;1.50;1.50;;;17.60;69.30;;;;;;5055575;28;43505;-72
2023/12/31 10:42:03;;;;;;;1.30;1.30;;;17.60;69.30;;;;;;5066198;28;43925;-72
2023/12/31 10:44:34;;;;;;;1.40;1.40;;;17.60;69.40;;;;;;5066262;28;43814;-72
2023/12/31 10:47:05;;;;;;;1.43;1.43;;;17.60;69.60;;;;;;5072178;28;43861;-72
2023/12/31 10:49:33;;;;;;;6.97;2.07;;;17.60;69.80;;;;;;5069522;27;43427;-72
2023/12/31 10:52:03;;;;;;;10.20;2.23;;;17.50;70.00;;;;;;5060565;28;43685;-71
2023/12/31 10:54:42;;;;;;;5.10;2.00;;;17.50;70.10;;;;;;5060101;28;43528;-71
2023/12/31 10:57:10;;;;;;;8.53;1.93;;;17.50;70.00;;;;;;5060776;28;43440;-71
2023/12/31 10:59:40;;;;;;;3.37;1.70;;;17.50;70.10;;;;;;5058330;28;43569;-71
2023/12/31 11:02:11;;;;;;;3.57;2.03;;;17.50;70.30;;;;;;5060318;28;43607;-71
2023/12/31 11:04:39;;;;;;;4.37;2.23;;;17.50;70.40;;;;;;5054297;28;43455;-70
2023/12/31 11:07:07;;;;;;;14.43;2.37;;;17.50;70.50;;;;;;5063913;28;43434;-71
2023/12/31 11:09:39;;;;;;;14.13;2.20;;;17.40;70.50;;;;;;5066449;28;43489;-74
2023/12/31 11:12:08;;;;;;;3.40;1.90;;;17.50;70.40;;;;;;5064252;28;43689;-71
2023/12/31 11:14:37;;;;;;;12.57;2.23;;;17.50;70.20;;;;;;5059812;28;43576;-71
2023/12/31 11:17:28;;;;;;;9.30;2.10;;;17.60;69.90;;;;;;5055549;28;43394;-70
2023/12/31 11:20:34;;;;;;;3.47;1.70;;;17.70;69.90;;;;;;5059309;28;43495;-70
2023/12/31 11:23:06;;;;;;;7.17;2.07;;;17.70;70.30;;;;;;5058253;28;44063;-71
2023/12/31 11:25:38;;;;;;;2.67;1.87;;;17.60;70.20;;;;;;5050931;28;44743;-70
2023/12/31 11:28:07;;;;;;;5.60;1.80;;;17.60;70.30;;;;;;5060167;28;43434;-70
2023/12/31 11:30:45;;;;;;;3.43;1.90;;;17.60;70.50;;;;;;5075747;28;43641;-71
2023/12/31 11:33:16;;;;;;;5.47;1.87;;;17.60;70.90;;;;;;5068992;28;45686;-70
2023/12/31 11:35:44;;;;;;;3.97;1.80;;;17.60;71.80;;;;;;5060705;28;43499;-70
2023/12/31 11:38:12;;;;;;;7.80;2.07;;;17.50;71.10;;;;;;5063490;28;43729;-71
2023/12/31 11:40:44;;;;;;;4.47;2.20;;;17.50;71.10;;;;;;5067392;28;43578;-70
2023/12/31 11:43:13;;;;;;;2.30;2.00;;;17.50;71.00;;;;;;5069010;28;44059;-70
2023/12/31 11:45:42;;;;;;;3.07;1.80;;;17.60;72.00;;;;;;5065482;28;45088;-71
2023/12/31 11:48:26;;;;;;;3.03;1.87;;;17.50;71.20;;;;;;5068146;28;43434;-70
2023/12/31 11:50:56;;;;;;;3.07;2.00;;;17.50;71.40;;;;;;5061407;28;43448;-70
2023/12/31 11:53:26;;;;;;;3.77;1.80;;;17.50;71.60;;;;;;5062181;28;45945;-73
2023/12/31 11:55:55;;;;;;;3.33;2.30;;;17.50;71.40;;;;;;5057638;28;45063;-71
2023/12/31 11:58:23;;;;;;;3.67;1.70;;;17.50;71.20;;;;;;5056366;28;45946;-71
2023/12/31 12:00:51;;;;;;;4.40;1.90;;;17.60;70.90;;;;;;5054195;28;43447;-71
2023/12/31 12:03:20;;;;;;;1.70;1.60;;;17.70;70.60;;;;;;5058129;28;45385;-72
2023/12/31 12:05:50;;;;;;;1.50;1.50;;;17.70;70.20;;;;;;5051338;28;43591;-72
2023/12/31 12:08:18;;;;;;;1.87;1.77;;;17.70;70.40;;;;;;5053412;28;43443;-72
2023/12/31 12:10:46;;;;;;;1.70;1.60;;;17.70;70.60;;;;;;5061846;28;43993;-72
2023/12/31 12:13:14;;;;;;;1.53;1.43;;;17.70;70.40;;;;;;5057009;28;43747;-72
2023/12/31 12:15:42;;;;;;;2.50;1.40;;;17.70;70.50;;;;;;5063673;28;43854;-72
2023/12/31 12:18:28;;;;;;;1.73;1.63;;;17.70;70.80;;;;;;5059011;28;43408;-71
2023/12/31 12:20:58;;;;;;;1.43;1.33;;;17.60;70.80;;;;;;5067738;28;43399;-71
2023/12/31 12:23:26;;;;;;;1.70;1.60;;;17.60;70.90;;;;;;5057537;28;43680;-71
2023/12/31 12:25:54;;;;;;;1.80;1.70;;;17.60;71.10;;;;;;5050924;28;43587;-72
2023/12/31 12:28:23;;;;;;;5.13;1.80;;;17.60;71.20;;;;;;5063271;28;43427;-71
2023/12/31 12:30:53;;;;;;;1.43;1.40;;;17.60;71.20;;;;;;5056790;28;43588;-71
2023/12/31 12:33:21;;;;;;;1.40;1.40;;;17.60;71.20;;;;;;5063484;28;43853;-71
2023/12/31 12:35:49;;;;;;;3.27;1.80;;;17.60;71.40;;;;;;5054250;28;43420;-72
2023/12/31 12:38:19;;;;;;;1.30;1.30;;;17.50;71.40;;;;;;5061474;28;43564;-72
2023/12/31 12:40:47;;;;;;;1.63;1.53;;;17.50;71.50;;;;;;5061074;28;43813;-71
2023/12/31 12:43:15;;;;;;;1.53;1.50;;;17.50;71.40;;;;;;5051023;28;46061;-71
2023/12/31 12:45:43;;;;;;;3.60;1.70;;;17.50;71.20;;;;;;5057554;28;44688;-71
2023/12/31 12:48:11;;;;;;;1.83;1.47;;;17.50;71.50;;;;;;5060028;28;43385;-71
2023/12/31 12:50:42;;;;;;;2.90;1.57;;;17.50;71.60;;;;;;5052150;28;43471;-72
2023/12/31 12:53:10;;;;;;;1.77;1.67;;;17.50;71.60;;;;;;5057951;28;43697;-72